Latest Coastal Weather Observations for Port Hedland

IDW60701

Issued at 10:53 pm WST Monday 25 September 2017 (issued every 10 minutes, with the page automatically refreshed every 10 minutes)

About coastal observations | Map of coastal stations | Coastal observations for WA | Marine services | Other Formats
Station Details ID: 004032 Name: PORT HEDLAND AIRPORT Lat: -20.37 Lon: 118.63 Height: 6.4 m
Data from the previous 72 hours. | See also: Recent months at Port Hedland
Date/Time
WST
Temp
°C
Wind Pressure Rain since
9am
mm
Weather Cloud Vis
km
Sea
Height
m
Swell
Dir  Spd
kts
Gust
kts
hPa Trend Height
m
Period
s
Dir
25/10:30pm 21.8 W 13 17 1012.1 - 0.0 - - 10 - - - -
25/10:00pm 22.0 W 12 16 1012.0 - 0.0 - - 10 - - - -
25/09:30pm 22.1 W 13 16 1011.9 - 0.0 - - 10 - - - -
25/09:00pm 22.2 WNW 11 15 1011.9 - 0.0 - - 10 - - - -
25/08:30pm 22.5 WNW 12 16 1011.6 - 0.0 - - 10 - - - -
25/08:00pm 22.6 WNW 12 16 1011.2 - 0.0 - - 10 - - - -
25/07:30pm 22.8 W 12 15 1011.0 - 0.0 - - 10 - - - -
25/07:00pm 22.9 WNW 12 16 1010.6 - 0.0 - - 10 - - - -
25/06:30pm 23.1 WNW 13 17 1010.2 - 0.0 - - 10 - - - -
25/06:00pm 23.4 WNW 14 21 1009.8 - 0.0 - - 10 - - - -
25/05:30pm 24.3 W 16 21 1009.7 - 0.0 - - 10 - - - -
25/05:00pm 24.7 WNW 19 23 1009.3 - 0.0 - - 10 - - - -
25/04:30pm 25.9 WNW 18 23 1009.2 - 0.0 - - 10 - - - -
25/04:00pm 26.3 WNW 19 23 1009.2 - 0.0 - - 10 - - - -
25/03:30pm 26.2 WNW 20 24 1009.1 - 0.0 - - 10 - - - -
25/03:00pm 27.0 WNW 21 28 1009.4 - 0.0 - - 10 - - - -
25/02:30pm 28.0 WNW 21 27 1009.5 - 0.0 - - 10 - - - -
25/02:00pm 27.7 WNW 19 26 1009.8 - 0.0 - - 10 - - - -
25/01:30pm 28.5 W 16 27 1010.0 - 0.0 - - 10 - - - -
25/01:15pm 29.3 WNW 18 34 1010.0 - 0.0 - - 10 - - - -
25/01:00pm 28.3 WNW 20 26 1010.3 - 0.0 - - 10 - - - -
25/12:30pm 27.5 WNW 20 25 1011.0 - 0.0 - - 10 - - - -
25/12:00pm 28.0 WNW 20 26 1011.5 - 0.0 - - 10 - - - -
25/11:30am 27.5 WNW 19 24 1012.1 - 0.0 - - 10 - - - -
25/11:00am 27.3 W 17 24 1012.5 - 0.0 - - 10 - - - -
25/10:30am 27.1 W 16 23 1012.9 - 0.0 - Partly cloudy 10 - - - -
25/10:00am 26.7 WSW 13 23 1013.2 - 0.0 - - 10 - - - -
25/09:30am 25.9 WSW 16 25 1013.5 - 0.0 - - 10 - - - -
25/09:24am 25.6 WSW 15 25 1013.5 - 0.0 - - 10 - - - -
25/09:00am 24.8 WSW 12 19 1013.6 - 0.0 - - 10 - - - -
25/08:30am 23.9 SW 14 18 1013.6 - 0.0 - - 10 - - - -
25/08:00am 23.1 SW 14 19 1013.5 - 0.0 - - 10 - - - -
25/07:30am 21.9 SW 13 16 1013.5 - 0.0 - - 10 - - - -
25/07:00am 20.4 SW 10 12 1013.2 - 0.0 - - 10 - - - -
25/06:30am 19.1 SW 9 12 1012.8 - 0.0 - - 10 - - - -
25/06:00am 18.5 WSW 10 13 1012.7 - 0.0 - - 10 - - - -
25/05:30am 18.9 SW 10 13 1012.4 - 0.0 - Partly cloudy 10 - - - -
25/05:00am 19.0 WSW 10 14 1012.0 - 0.0 - - 10 - - - -
25/04:30am 19.5 WSW 13 16 1011.7 - 0.0 - - 10 - - - -
25/04:00am 19.9 WSW 14 18 1011.3 - 0.0 - Partly cloudy 10 - - - -
25/03:30am 19.6 WSW 12 15 1011.3 - 0.0 - - 10 - - - -
25/03:00am 19.7 WSW 13 15 1011.2 - 0.0 - Mostly clear 10 - - - -
25/02:30am 19.8 WSW 13 16 1011.3 - 0.0 - - 10 - - - -
25/02:00am 20.0 WSW 12 15 1011.2 - 0.0 - - 10 - - - -
25/01:30am 20.4 W 13 16 1011.2 - 0.0 - - 10 - - - -
25/01:00am 20.1 W 9 11 1011.3 - 0.0 - - 10 - - - -
25/12:30am 20.5 W 11 14 1011.2 - 0.0 - - 10 - - - -
25/12:00am 20.9 W 12 15 1011.3 - 0.0 - - 10 - - - -
 
Date/Time
WST
Temp
°C
Wind Pressure Rain since
9am
mm
Weather Cloud Vis
km
Sea
Height
m
Swell
Dir  Spd
kts
Gust
kts
hPa Trend Height
m
Period
s
Dir
24/11:30pm 21.2 W 14 17 1011.5 - 0.0 - - 10 - - - -
24/11:00pm 21.2 W 13 18 1011.5 - 0.0 - - 10 - - - -
24/10:30pm 21.5 W 14 17 1011.5 - 0.0 - - 10 - - - -
24/10:00pm 21.8 W 15 19 1011.8 - 0.0 - - 10 - - - -
24/09:30pm 21.7 W 14 16 1011.8 - 0.0 - - 10 - - - -
24/09:00pm 22.0 W 14 19 1011.7 - 0.0 - - 10 - - - -
24/08:30pm 22.0 WNW 15 19 1011.4 - 0.0 - - 10 - - - -
24/08:00pm 22.2 W 13 17 1011.1 - 0.0 - - 10 - - - -
24/07:30pm 22.5 WNW 16 21 1010.7 - 0.0 - - 10 - - - -
24/07:00pm 22.7 WNW 16 21 1010.5 - 0.0 - - 10 - - - -
24/06:30pm 22.8 WNW 15 21 1010.1 - 0.0 - - 10 - - - -
24/06:00pm 23.2 WNW 18 23 1009.8 - 0.0 - - 10 - - - -
24/05:30pm 23.9 WNW 19 27 1009.6 - 0.0 - - 10 - - - -
24/05:25pm 24.3 WNW 18 28 1009.6 - 0.0 - - 10 - - - -
24/05:00pm 24.4 WNW 21 27 1009.4 - 0.0 - - 10 - - - -
24/04:30pm 25.3 WNW 22 28 1009.3 - 0.0 - - 10 - - - -
24/04:00pm 25.7 WNW 23 28 1009.1 - 0.0 - - 10 - - - -
24/03:30pm 26.0 WNW 22 28 1009.2 - 0.0 - - 10 - - - -
24/03:00pm 27.0 WNW 23 29 1009.4 - 0.0 - - 10 - - - -
24/02:30pm 27.7 NW 22 31 1009.4 - 0.0 - - 10 - - - -
24/02:00pm 27.2 WNW 24 30 1009.7 - 0.0 - - 10 - - - -
24/01:30pm 27.5 WNW 24 32 1010.0 - 0.0 - - 10 - - - -
24/01:00pm 27.0 NW 23 28 1010.4 - 0.0 - - 10 - - - -
24/12:30pm 27.4 NW 23 27 1010.8 - 0.0 - - 10 - - - -
24/12:00pm 27.3 NW 21 25 1011.3 - 0.0 - - 10 - - - -
24/11:30am 27.1 WNW 17 24 1011.9 - 0.0 - - 10 - - - -
24/11:14am 27.2 W 15 26 1012.1 - 0.0 - - 10 - - - -
24/11:00am 26.5 W 12 21 1012.3 - 0.0 - - 10 - - - -
24/10:30am 26.4 W 12 21 1012.8 - 0.0 - - 10 - - - -
24/10:00am 26.8 W 13 21 1013.1 - 0.0 - - 10 - - - -
24/09:30am 25.7 W 15 19 1013.5 - 0.0 - - 10 - - - -
24/09:00am 25.4 W 16 20 1013.5 - 0.0 - - 10 - - - -
24/08:30am 24.2 WSW 16 20 1013.5 - 0.0 - - 10 - - - -
24/08:00am 23.5 W 14 19 1013.4 - 0.0 - - 10 - - - -
24/07:30am 21.6 WSW 17 21 1013.1 - 0.0 - - 10 - - - -
24/07:00am 20.6 W 14 17 1013.0 - 0.0 - - 10 - - - -
24/06:30am 19.1 W 12 15 1012.7 - 0.0 - - 10 - - - -
24/06:00am 18.7 W 13 15 1012.5 - 0.0 - - 10 - - - -
24/05:30am 18.5 W 11 14 1012.2 - 0.0 - - 10 - - - -
24/05:00am 18.8 W 12 16 1012.1 - 0.0 - - 10 - - - -
24/04:30am 18.0 W 10 12 1012.0 - 0.0 - - 10 - - - -
24/04:00am 18.1 W 9 11 1011.8 - 0.0 - - 10 - - - -
24/03:30am 18.9 W 9 11 1011.6 - 0.0 - - 10 - - - -
24/03:00am 18.7 W 9 11 1011.6 - 0.0 - - 10 - - - -
24/02:30am 18.6 W 9 12 1011.7 - 0.0 - - 10 - - - -
24/02:00am 19.4 WSW 10 12 1011.9 - 0.0 - - 10 - - - -
24/01:30am 20.5 W 12 15 1012.1 - 0.0 - - 10 - - - -
24/01:00am 20.6 W 12 15 1012.3 - 0.0 - - 10 - - - -
24/12:30am 20.5 WSW 12 14 1012.4 - 0.0 - - 10 - - - -
24/12:00am 20.3 W 11 13 1012.5 - 0.0 - - 10 - - - -
 
Date/Time
WST
Temp
°C
Wind Pressure Rain since
9am
mm
Weather Cloud Vis
km
Sea
Height
m
Swell
Dir  Spd
kts
Gust
kts
hPa Trend Height
m
Period
s
Dir
23/11:30pm 21.0 W 12 15 1012.5 - 0.0 - - 10 - - - -
23/11:00pm 21.8 W 12 16 1012.6 - 0.0 - - 10 - - - -
23/10:30pm 22.0 W 12 16 1012.7 - 0.0 - - 10 - - - -
23/10:00pm 22.1 W 11 15 1012.9 - 0.0 - - 10 - - - -
23/09:30pm 22.1 W 10 12 1013.1 - 0.0 - - 10 - - - -
23/09:00pm 22.4 WNW 10 12 1012.8 - 0.0 - - 10 - - - -
23/08:30pm 22.6 WNW 10 12 1012.6 - 0.0 - - 10 - - - -
23/08:00pm 23.1 WNW 10 12 1012.5 - 0.0 - - 10 - - - -
23/07:30pm 23.3 WNW 11 12 1012.2 - 0.0 - - 10 - - - -
23/07:00pm 23.6 WNW 10 11 1012.0 - 0.0 - - 10 - - - -
23/06:30pm 24.1 WNW 10 11 1011.7 - 0.0 - - 10 - - - -
23/06:00pm 26.0 WNW 11 14 1011.5 - 0.0 - - 10 - - - -
23/05:30pm 29.1 W 15 21 1011.4 - 0.0 - - 10 - - - -
23/05:00pm 30.6 W 19 23 1011.2 - 0.0 - - 10 - - - -
23/04:30pm 31.4 W 18 23 1011.2 - 0.0 - - 10 - - - -
23/04:00pm 32.4 W 18 25 1011.1 - 0.0 - - 10 - - - -
23/03:30pm 32.4 WNW 18 22 1011.1 - 0.0 - - 10 - - - -
23/03:00pm 33.0 WNW 19 24 1011.3 - 0.0 - - 10 - - - -
23/02:30pm 32.6 WNW 19 25 1011.6 - 0.0 - - 10 - - - -
23/02:00pm 32.2 WNW 19 25 1011.9 - 0.0 - - 10 - - - -
23/01:30pm 32.4 WNW 17 23 1012.2 - 0.0 - - 10 - - - -
23/01:00pm 31.3 NW 19 23 1012.5 - 0.0 - - 10 - - - -
23/12:30pm 32.0 NW 17 23 1012.9 - 0.0 - - 10 - - - -
23/12:00pm 31.5 NW 15 20 1013.4 - 0.0 - - 10 - - - -
23/11:30am 31.7 NW 14 18 1013.7 - 0.0 - - 10 - - - -
23/11:00am 31.3 NW 13 16 1014.0 - 0.0 - - 10 - - - -
23/10:30am 31.5 W 10 15 1014.4 - 0.0 - - 10 - - - -
23/10:00am 30.5 WSW 11 16 1014.7 - 0.0 - - 10 - - - -
23/09:30am 29.6 WSW 11 15 1014.8 - 0.0 - - 10 - - - -
23/09:00am 28.0 WSW 11 15 1014.8 - 0.0 - - 10 - - - -
23/08:30am 27.5 WSW 10 13 1014.7 - 0.0 - - 10 - - - -
23/08:00am 25.6 WSW 12 16 1014.6 - 0.0 - - 10 - - - -
23/07:30am 22.6 WSW 10 13 1014.3 - 0.0 - - 10 - - - -
23/07:00am 20.1 WSW 10 13 1013.9 - 0.0 - - 10 - - - -
23/06:30am 17.8 W 7 9 1013.5 - 0.0 - - 10 - - - -
23/06:00am 17.1 W 7 9 1013.1 - 0.0 - - 10 - - - -
23/05:30am 17.0 W 8 9 1013.0 - 0.0 - - 10 - - - -
23/05:00am 18.0 W 8 9 1012.6 - 0.0 - - 10 - - - -
23/04:30am 18.7 W 8 9 1012.2 - 0.0 - - 10 - - - -
23/04:00am 20.0 W 8 10 1012.0 - 0.0 - - 10 - - - -
23/03:30am 19.6 W 8 9 1011.9 - 0.0 - - 10 - - - -
23/03:00am 20.5 W 8 10 1011.9 - 0.0 - - 10 - - - -
23/02:30am 20.6 W 7 9 1012.0 - 0.0 - - 10 - - - -
23/02:00am 21.2 W 8 10 1012.1 - 0.0 - - 10 - - - -
23/01:30am 21.5 W 9 11 1012.2 - 0.0 - - 10 - - - -
23/01:00am 22.2 W 10 12 1012.2 - 0.0 - - 10 - - - -
23/12:30am 22.3 W 10 13 1012.3 - 0.0 - - 10 - - - -
23/12:00am 22.4 W 11 13 1012.5 - 0.0 - - 10 - - - -
 
Date/Time
WST
Temp
°C
Wind Pressure Rain since
9am
mm
Weather Cloud Vis
km
Sea
Height
m
Swell
Dir  Spd
kts
Gust
kts
hPa Trend Height
m
Period
s
Dir
22/11:30pm 22.8 W 11 14 1012.6 - 0.0 - - 10 - - - -
22/11:00pm 23.0 W 12 14 1012.6 - 0.0 - - 10 - - - -

Other Formats:

Comma delimited format used in spreadsheet applications
http://www.bom.gov.au/fwo/IDW60701/IDW60701.94312.axf

JavaScript Object Notation format (JSON) in row-major order
http://www.bom.gov.au/fwo/IDW60701/IDW60701.94312.json